sensor_id;sensor_type;location;lat;lon;timestamp;pressure;altitude;pressure_sealevel;temperature;humidity
3294;BME280;1659;51.470;6.770;2023-03-01T00:00:39;102931.47;;;-1.16;64.04
3294;BME280;1659;51.470;6.770;2023-03-01T00:03:06;102924.50;;;-1.17;64.30
3294;BME280;1659;51.470;6.770;2023-03-01T00:05:36;102930.50;;;-1.18;64.03
3294;BME280;1659;51.470;6.770;2023-03-01T00:08:02;102933.81;;;-1.20;64.36
3294;BME280;1659;51.470;6.770;2023-03-01T00:10:29;102927.63;;;-1.22;64.49
3294;BME280;1659;51.470;6.770;2023-03-01T00:12:55;102927.53;;;-1.24;64.11
3294;BME280;1659;51.470;6.770;2023-03-01T00:15:23;102929.03;;;-1.27;64.48
3294;BME280;1659;51.470;6.770;2023-03-01T00:17:50;102931.50;;;-1.29;64.36
3294;BME280;1659;51.470;6.770;2023-03-01T00:20:16;102922.75;;;-1.31;64.52
3294;BME280;1659;51.470;6.770;2023-03-01T00:22:43;102923.41;;;-1.34;64.63
3294;BME280;1659;51.470;6.770;2023-03-01T00:25:09;102917.25;;;-1.36;64.75
3294;BME280;1659;51.470;6.770;2023-03-01T00:27:36;102920.63;;;-1.37;64.69
3294;BME280;1659;51.470;6.770;2023-03-01T00:30:03;102910.06;;;-1.40;64.78
3294;BME280;1659;51.470;6.770;2023-03-01T00:32:31;102915.25;;;-1.40;65.04
3294;BME280;1659;51.470;6.770;2023-03-01T00:34:59;102909.03;;;-1.42;65.04
3294;BME280;1659;51.470;6.770;2023-03-01T00:37:26;102902.88;;;-1.44;65.00
3294;BME280;1659;51.470;6.770;2023-03-01T00:39:52;102905.25;;;-1.47;65.11
3294;BME280;1659;51.470;6.770;2023-03-01T00:42:19;102905.97;;;-1.49;65.20
3294;BME280;1659;51.470;6.770;2023-03-01T00:44:47;102905.75;;;-1.53;65.33
3294;BME280;1659;51.470;6.770;2023-03-01T00:47:13;102902.06;;;-1.56;65.47
3294;BME280;1659;51.470;6.770;2023-03-01T00:49:41;102895.91;;;-1.58;65.54
3294;BME280;1659;51.470;6.770;2023-03-01T00:52:08;102897.50;;;-1.60;65.42
3294;BME280;1659;51.470;6.770;2023-03-01T00:54:34;102897.50;;;-1.60;65.71
3294;BME280;1659;51.470;6.770;2023-03-01T00:57:01;102889.50;;;-1.63;65.63
3294;BME280;1659;51.470;6.770;2023-03-01T00:59:27;102885.03;;;-1.66;65.69
3294;BME280;1659;51.470;6.770;2023-03-01T01:01:54;102883.91;;;-1.69;65.77
3294;BME280;1659;51.470;6.770;2023-03-01T01:04:20;102880.31;;;-1.72;65.97
3294;BME280;1659;51.470;6.770;2023-03-01T01:06:49;102876.63;;;-1.75;65.85
3294;BME280;1659;51.470;6.770;2023-03-01T01:09:16;102881.72;;;-1.77;65.97
3294;BME280;1659;51.470;6.770;2023-03-01T01:11:44;102881.53;;;-1.80;66.08
3294;BME280;1659;51.470;6.770;2023-03-01T01:14:11;102875.25;;;-1.83;66.29
3294;BME280;1659;51.470;6.770;2023-03-01T01:16:38;102874.06;;;-1.88;65.93
3294;BME280;1659;51.470;6.770;2023-03-01T01:19:05;102870.38;;;-1.92;66.42
3294;BME280;1659;51.470;6.770;2023-03-01T01:21:32;102870.25;;;-1.94;66.13
3294;BME280;1659;51.470;6.770;2023-03-01T01:24:02;102862.38;;;-1.95;66.48
3294;BME280;1659;51.470;6.770;2023-03-01T01:26:30;102860.47;;;-1.98;66.31
3294;BME280;1659;51.470;6.770;2023-03-01T01:28:59;102857.78;;;-1.99;66.55
3294;BME280;1659;51.470;6.770;2023-03-01T01:31:26;102852.59;;;-1.99;66.34
3294;BME280;1659;51.470;6.770;2023-03-01T01:33:54;102848.34;;;-1.99;66.43
3294;BME280;1659;51.470;6.770;2023-03-01T01:36:21;102844.03;;;-1.98;66.58
3294;BME280;1659;51.470;6.770;2023-03-01T01:38:48;102841.22;;;-2.01;66.71
3294;BME280;1659;51.470;6.770;2023-03-01T01:41:19;102837.66;;;-2.03;66.53
3294;BME280;1659;51.470;6.770;2023-03-01T01:43:47;102835.94;;;-2.03;66.38
3294;BME280;1659;51.470;6.770;2023-03-01T01:46:21;102835.88;;;-2.04;66.61
3294;BME280;1659;51.470;6.770;2023-03-01T01:48:54;102834.84;;;-2.06;66.66
3294;BME280;1659;51.470;6.770;2023-03-01T01:51:24;102831.25;;;-2.09;66.79
3294;BME280;1659;51.470;6.770;2023-03-01T01:53:55;102831.06;;;-2.12;66.99
3294;BME280;1659;51.470;6.770;2023-03-01T01:56:26;102829.16;;;-2.14;67.05
3294;BME280;1659;51.470;6.770;2023-03-01T01:58:54;102835.84;;;-2.18;67.25
3294;BME280;1659;51.470;6.770;2023-03-01T02:01:21;102832.06;;;-2.23;67.25
3294;BME280;1659;51.470;6.770;2023-03-01T02:03:48;102834.44;;;-2.26;67.43
3294;BME280;1659;51.470;6.770;2023-03-01T02:06:20;102843.91;;;-2.26;67.42
3294;BME280;1659;51.470;6.770;2023-03-01T02:08:49;102838.63;;;-2.28;67.44
3294;BME280;1659;51.470;6.770;2023-03-01T02:11:18;102835.91;;;-2.30;67.16
3294;BME280;1659;51.470;6.770;2023-03-01T02:13:47;102842.81;;;-2.30;67.45
3294;BME280;1659;51.470;6.770;2023-03-01T02:16:14;102832.44;;;-2.30;67.32
3294;BME280;1659;51.470;6.770;2023-03-01T02:18:41;102832.44;;;-2.30;67.40
3294;BME280;1659;51.470;6.770;2023-03-01T02:21:19;102823.84;;;-2.29;67.43
3294;BME280;1659;51.470;6.770;2023-03-01T02:23:49;102822.97;;;-2.30;67.57
3294;BME280;1659;51.470;6.770;2023-03-01T02:26:20;102808.31;;;-2.29;67.63
3294;BME280;1659;51.470;6.770;2023-03-01T02:28:51;102813.31;;;-2.32;67.63
3294;BME280;1659;51.470;6.770;2023-03-01T02:31:19;102813.22;;;-2.34;67.68
3294;BME280;1659;51.470;6.770;2023-03-01T02:34:04;102808.72;;;-2.36;67.60
3294;BME280;1659;51.470;6.770;2023-03-01T02:36:35;102813.78;;;-2.38;68.11
3294;BME280;1659;51.470;6.770;2023-03-01T02:39:05;102807.72;;;-2.38;68.02
3294;BME280;1659;51.470;6.770;2023-03-01T02:41:35;102800.75;;;-2.39;68.07
3294;BME280;1659;51.470;6.770;2023-03-01T02:44:03;102806.00;;;-2.38;68.06
3294;BME280;1659;51.470;6.770;2023-03-01T02:46:30;102803.53;;;-2.36;68.24
3294;BME280;1659;51.470;6.770;2023-03-01T02:48:58;102806.13;;;-2.36;67.96
3294;BME280;1659;51.470;6.770;2023-03-01T02:51:38;102803.63;;;-2.35;68.22
3294;BME280;1659;51.470;6.770;2023-03-01T02:54:13;102815.81;;;-2.34;67.98
3294;BME280;1659;51.470;6.770;2023-03-01T02:56:43;102821.97;;;-2.32;67.89
3294;BME280;1659;51.470;6.770;2023-03-01T02:59:15;102818.50;;;-2.32;68.03
3294;BME280;1659;51.470;6.770;2023-03-01T03:01:42;102817.47;;;-2.34;68.37
3294;BME280;1659;51.470;6.770;2023-03-01T03:04:12;102825.34;;;-2.33;68.24
3294;BME280;1659;51.470;6.770;2023-03-01T03:06:42;102820.16;;;-2.33;68.38
3294;BME280;1659;51.470;6.770;2023-03-01T03:09:09;102816.69;;;-2.33;68.26
3294;BME280;1659;51.470;6.770;2023-03-01T03:11:36;102816.00;;;-2.31;68.77
3294;BME280;1659;51.470;6.770;2023-03-01T03:14:04;102816.91;;;-2.30;68.44
3294;BME280;1659;51.470;6.770;2023-03-01T03:16:32;102812.50;;;-2.31;68.44
3294;BME280;1659;51.470;6.770;2023-03-01T03:18:59;102820.28;;;-2.31;68.73
3294;BME280;1659;51.470;6.770;2023-03-01T03:21:30;102813.31;;;-2.32;68.63
3294;BME280;1659;51.470;6.770;2023-03-01T03:23:57;102809.81;;;-2.33;68.76
3294;BME280;1659;51.470;6.770;2023-03-01T03:26:23;102813.88;;;-2.36;68.76
3294;BME280;1659;51.470;6.770;2023-03-01T03:28:50;102810.31;;;-2.38;68.91
3294;BME280;1659;51.470;6.770;2023-03-01T03:31:17;102814.50;;;-2.40;69.10
3294;BME280;1659;51.470;6.770;2023-03-01T03:33:45;102813.59;;;-2.41;69.05
3294;BME280;1659;51.470;6.770;2023-03-01T03:36:15;102801.31;;;-2.43;69.02
3294;BME280;1659;51.470;6.770;2023-03-01T03:38:43;102801.22;;;-2.45;69.22
3294;BME280;1659;51.470;6.770;2023-03-01T03:41:09;102798.63;;;-2.45;69.23
3294;BME280;1659;51.470;6.770;2023-03-01T03:43:37;102802.03;;;-2.46;69.14
3294;BME280;1659;51.470;6.770;2023-03-01T03:46:04;102793.44;;;-2.45;68.99
3294;BME280;1659;51.470;6.770;2023-03-01T03:48:32;102795.16;;;-2.45;69.32
3294;BME280;1659;51.470;6.770;2023-03-01T03:51:00;102794.38;;;-2.44;69.21
3294;BME280;1659;51.470;6.770;2023-03-01T03:53:30;102795.38;;;-2.42;69.12
3294;BME280;1659;51.470;6.770;2023-03-01T03:55:57;102795.47;;;-2.41;69.37
3294;BME280;1659;51.470;6.770;2023-03-01T03:58:25;102782.63;;;-2.39;69.31
3294;BME280;1659;51.470;6.770;2023-03-01T04:00:53;102779.03;;;-2.41;69.07
3294;BME280;1659;51.470;6.770;2023-03-01T04:03:21;102782.41;;;-2.42;68.97
3294;BME280;1659;51.470;6.770;2023-03-01T04:05:48;102771.25;;;-2.41;69.39
3294;BME280;1659;51.470;6.770;2023-03-01T04:08:17;102772.16;;;-2.41;69.56
3294;BME280;1659;51.470;6.770;2023-03-01T04:10:47;102769.38;;;-2.44;69.34
3294;BME280;1659;51.470;6.770;2023-03-01T04:13:16;102763.09;;;-2.48;69.70
3294;BME280;1659;51.470;6.770;2023-03-01T04:15:44;102762.78;;;-2.52;69.56
3294;BME280;1659;51.470;6.770;2023-03-01T04:18:12;102759.09;;;-2.56;69.84
3294;BME280;1659;51.470;6.770;2023-03-01T04:20:39;102758.97;;;-2.57;69.53
3294;BME280;1659;51.470;6.770;2023-03-01T04:23:07;102763.28;;;-2.58;69.71
3294;BME280;1659;51.470;6.770;2023-03-01T04:25:41;102772.63;;;-2.60;69.71
3294;BME280;1659;51.470;6.770;2023-03-01T04:28:09;102772.53;;;-2.61;70.09
3294;BME280;1659;51.470;6.770;2023-03-01T04:30:36;102759.38;;;-2.64;69.69
3294;BME280;1659;51.470;6.770;2023-03-01T04:33:04;102766.34;;;-2.63;69.96
3294;BME280;1659;51.470;6.770;2023-03-01T04:35:31;102760.19;;;-2.66;69.87
3294;BME280;1659;51.470;6.770;2023-03-01T04:37:57;102757.47;;;-2.67;70.16
3294;BME280;1659;51.470;6.770;2023-03-01T04:40:24;102766.81;;;-2.69;70.23
3294;BME280;1659;51.470;6.770;2023-03-01T04:42:52;102765.81;;;-2.71;70.18
3294;BME280;1659;51.470;6.770;2023-03-01T04:45:19;102772.69;;;-2.72;70.29
3294;BME280;1659;51.470;6.770;2023-03-01T04:47:46;102763.13;;;-2.73;70.22
3294;BME280;1659;51.470;6.770;2023-03-01T04:50:14;102768.22;;;-2.74;70.25
3294;BME280;1659;51.470;6.770;2023-03-01T04:52:41;102762.13;;;-2.75;70.30
3294;BME280;1659;51.470;6.770;2023-03-01T04:55:09;102756.06;;;-2.75;70.43
3294;BME280;1659;51.470;6.770;2023-03-01T04:57:38;102756.94;;;-2.75;70.38
3294;BME280;1659;51.470;6.770;2023-03-01T05:00:09;102750.88;;;-2.75;70.54
3294;BME280;1659;51.470;6.770;2023-03-01T05:02:47;102745.72;;;-2.75;70.57
3294;BME280;1659;51.470;6.770;2023-03-01T05:05:19;102745.00;;;-2.73;70.43
3294;BME280;1659;51.470;6.770;2023-03-01T05:07:45;102746.81;;;-2.72;70.42
3294;BME280;1659;51.470;6.770;2023-03-01T05:10:12;102747.03;;;-2.69;70.33
3294;BME280;1659;51.470;6.770;2023-03-01T05:12:38;102748.69;;;-2.69;70.78
3294;BME280;1659;51.470;6.770;2023-03-01T05:15:07;102750.50;;;-2.68;70.57
3294;BME280;1659;51.470;6.770;2023-03-01T05:17:34;102747.91;;;-2.68;70.39
3294;BME280;1659;51.470;6.770;2023-03-01T05:20:00;102745.13;;;-2.71;70.84
3294;BME280;1659;51.470;6.770;2023-03-01T05:22:30;102739.81;;;-2.73;70.73
3294;BME280;1659;51.470;6.770;2023-03-01T05:24:57;102741.41;;;-2.75;71.12
3294;BME280;1659;51.470;6.770;2023-03-01T05:27:23;102723.19;;;-2.76;70.79
3294;BME280;1659;51.470;6.770;2023-03-01T05:29:50;102733.44;;;-2.78;71.04
3294;BME280;1659;51.470;6.770;2023-03-01T05:32:18;102734.25;;;-2.79;71.33
3294;BME280;1659;51.470;6.770;2023-03-01T05:34:44;102731.56;;;-2.80;71.21
3294;BME280;1659;51.470;6.770;2023-03-01T05:37:12;102724.78;;;-2.78;70.95
3294;BME280;1659;51.470;6.770;2023-03-01T05:39:39;102721.22;;;-2.80;71.33
3294;BME280;1659;51.470;6.770;2023-03-01T05:42:11;102725.59;;;-2.79;71.32
3294;BME280;1659;51.470;6.770;2023-03-01T05:44:41;102729.09;;;-2.79;71.34
3294;BME280;1659;51.470;6.770;2023-03-01T05:47:07;102721.31;;;-2.79;71.51
3294;BME280;1659;51.470;6.770;2023-03-01T05:49:35;102724.00;;;-2.77;71.26
3294;BME280;1659;51.470;6.770;2023-03-01T05:52:02;102723.19;;;-2.76;71.80
3294;BME280;1659;51.470;6.770;2023-03-01T05:54:28;102723.53;;;-2.72;71.26
3294;BME280;1659;51.470;6.770;2023-03-01T05:56:55;102722.25;;;-2.65;71.43
3294;BME280;1659;51.470;6.770;2023-03-01T05:59:22;102733.91;;;-2.58;71.21
3294;BME280;1659;51.470;6.770;2023-03-01T06:01:48;102736.00;;;-2.53;71.50
3294;BME280;1659;51.470;6.770;2023-03-01T06:04:15;102735.13;;;-2.53;71.32
3294;BME280;1659;51.470;6.770;2023-03-01T06:06:43;102736.78;;;-2.54;71.73
3294;BME280;1659;51.470;6.770;2023-03-01T06:09:09;102737.59;;;-2.55;71.27
3294;BME280;1659;51.470;6.770;2023-03-01T06:11:36;102736.59;;;-2.57;71.88
3294;BME280;1659;51.470;6.770;2023-03-01T06:14:03;102736.59;;;-2.57;71.53
3294;BME280;1659;51.470;6.770;2023-03-01T06:16:31;102733.19;;;-2.56;71.57
3294;BME280;1659;51.470;6.770;2023-03-01T06:18:58;102726.25;;;-2.57;71.88
3294;BME280;1659;51.470;6.770;2023-03-01T06:21:24;102728.91;;;-2.55;71.87
3294;BME280;1659;51.470;6.770;2023-03-01T06:23:52;102727.34;;;-2.53;71.64
3294;BME280;1659;51.470;6.770;2023-03-01T06:26:19;102720.47;;;-2.53;71.77
3294;BME280;1659;51.470;6.770;2023-03-01T06:28:45;102716.28;;;-2.51;71.86
3294;BME280;1659;51.470;6.770;2023-03-01T06:31:12;102705.94;;;-2.51;72.07
3294;BME280;1659;51.470;6.770;2023-03-01T06:33:39;102721.56;;;-2.49;72.11
3294;BME280;1659;51.470;6.770;2023-03-01T06:36:06;102712.91;;;-2.50;71.90
3294;BME280;1659;51.470;6.770;2023-03-01T06:38:33;102716.50;;;-2.48;72.01
3294;BME280;1659;51.470;6.770;2023-03-01T06:41:01;102712.19;;;-2.47;72.13
3294;BME280;1659;51.470;6.770;2023-03-01T06:43:27;102714.00;;;-2.46;72.15
3294;BME280;1659;51.470;6.770;2023-03-01T06:45:54;102716.78;;;-2.43;72.01
3294;BME280;1659;51.470;6.770;2023-03-01T06:48:21;102724.75;;;-2.40;71.94
3294;BME280;1659;51.470;6.770;2023-03-01T06:50:47;102722.38;;;-2.37;72.08
3294;BME280;1659;51.470;6.770;2023-03-01T06:53:14;102726.16;;;-2.32;72.00
3294;BME280;1659;51.470;6.770;2023-03-01T06:55:40;102731.72;;;-2.25;71.97
3294;BME280;1659;51.470;6.770;2023-03-01T06:58:09;102729.75;;;-2.16;72.07
3294;BME280;1659;51.470;6.770;2023-03-01T07:00:38;102735.50;;;-2.07;71.95
3294;BME280;1659;51.470;6.770;2023-03-01T07:03:06;102723.25;;;-1.96;71.92
3294;BME280;1659;51.470;6.770;2023-03-01T07:05:33;102721.44;;;-1.84;72.01
3294;BME280;1659;51.470;6.770;2023-03-01T07:07:59;102719.50;;;-1.73;72.12
3294;BME280;1659;51.470;6.770;2023-03-01T07:10:26;102726.38;;;-1.60;71.84
3294;BME280;1659;51.470;6.770;2023-03-01T07:12:55;102728.84;;;-1.48;71.85
3294;BME280;1659;51.470;6.770;2023-03-01T07:15:23;102725.13;;;-1.39;71.74
3294;BME280;1659;51.470;6.770;2023-03-01T07:17:51;102717.97;;;-1.28;71.77
3294;BME280;1659;51.470;6.770;2023-03-01T07:20:18;102725.63;;;-1.16;71.60
3294;BME280;1659;51.470;6.770;2023-03-01T07:22:47;102718.38;;;-1.07;71.75
3294;BME280;1659;51.470;6.770;2023-03-01T07:25:14;102722.44;;;-0.97;71.69
3294;BME280;1659;51.470;6.770;2023-03-01T07:27:41;102718.88;;;-0.84;72.01
3294;BME280;1659;51.470;6.770;2023-03-01T07:30:09;102717.91;;;-0.71;71.57
3294;BME280;1659;51.470;6.770;2023-03-01T07:32:37;102714.84;;;-0.49;71.39
3294;BME280;1659;51.470;6.770;2023-03-01T07:35:04;102707.56;;;-0.25;71.08
3294;BME280;1659;51.470;6.770;2023-03-01T07:37:31;102706.84;;;0.09;70.32
3294;BME280;1659;51.470;6.770;2023-03-01T07:39:57;102709.13;;;0.50;69.61
3294;BME280;1659;51.470;6.770;2023-03-01T07:42:24;102701.88;;;0.94;68.65
3294;BME280;1659;51.470;6.770;2023-03-01T07:44:50;102698.78;;;1.36;68.48
3294;BME280;1659;51.470;6.770;2023-03-01T07:47:17;102707.97;;;1.63;68.17
3294;BME280;1659;51.470;6.770;2023-03-01T07:49:45;102704.16;;;1.75;67.83
3294;BME280;1659;51.470;6.770;2023-03-01T07:52:12;102705.75;;;1.89;67.50
3294;BME280;1659;51.470;6.770;2023-03-01T07:54:38;102700.56;;;2.08;67.96
3294;BME280;1659;51.470;6.770;2023-03-01T07:57:05;102690.19;;;2.28;67.69
3294;BME280;1659;51.470;6.770;2023-03-01T07:59:31;102693.16;;;2.55;67.80
3294;BME280;1659;51.470;6.770;2023-03-01T08:01:58;102696.56;;;2.93;66.98
3294;BME280;1659;51.470;6.770;2023-03-01T08:04:25;102688.84;;;3.37;66.40
3294;BME280;1659;51.470;6.770;2023-03-01T08:06:53;102682.66;;;4.00;65.49
3294;BME280;1659;51.470;6.770;2023-03-01T08:09:21;102694.63;;;4.62;64.17
3294;BME280;1659;51.470;6.770;2023-03-01T08:11:47;102689.03;;;5.27;63.21
3294;BME280;1659;51.470;6.770;2023-03-01T08:14:14;102682.50;;;5.94;62.42
3294;BME280;1659;51.470;6.770;2023-03-01T08:16:40;102686.63;;;6.43;61.81
3294;BME280;1659;51.470;6.770;2023-03-01T08:19:09;102688.50;;;6.79;60.61
3294;BME280;1659;51.470;6.770;2023-03-01T08:21:39;102682.47;;;7.15;59.71
3294;BME280;1659;51.470;6.770;2023-03-01T08:24:08;102687.66;;;7.47;59.27
3294;BME280;1659;51.470;6.770;2023-03-01T08:26:39;102683.00;;;7.72;58.52
3294;BME280;1659;51.470;6.770;2023-03-01T08:29:06;102677.72;;;7.72;57.89
3294;BME280;1659;51.470;6.770;2023-03-01T08:31:34;102670.50;;;8.01;57.01
3294;BME280;1659;51.470;6.770;2023-03-01T08:34:05;102678.19;;;8.30;56.88
3294;BME280;1659;51.470;6.770;2023-03-01T08:36:35;102670.75;;;8.52;56.19
3294;BME280;1659;51.470;6.770;2023-03-01T08:39:02;102661.91;;;8.94;55.55
3294;BME280;1659;51.470;6.770;2023-03-01T08:41:31;102661.00;;;9.42;55.22
3294;BME280;1659;51.470;6.770;2023-03-01T08:43:57;102659.56;;;9.64;53.97
3294;BME280;1659;51.470;6.770;2023-03-01T08:46:25;102657.75;;;9.60;53.55
3294;BME280;1659;51.470;6.770;2023-03-01T08:48:52;102655.25;;;9.69;53.46
3294;BME280;1659;51.470;6.770;2023-03-01T08:51:19;102651.19;;;9.93;52.64
3294;BME280;1659;51.470;6.770;2023-03-01T08:53:46;102653.91;;;9.99;52.20
3294;BME280;1659;51.470;6.770;2023-03-01T08:56:14;102652.91;;;9.89;51.34
3294;BME280;1659;51.470;6.770;2023-03-01T08:58:45;102657.13;;;9.78;50.62
3294;BME280;1659;51.470;6.770;2023-03-01T09:01:14;102654.63;;;9.87;50.68
3294;BME280;1659;51.470;6.770;2023-03-01T09:03:41;102644.16;;;9.93;50.27
3294;BME280;1659;51.470;6.770;2023-03-01T09:06:08;102644.41;;;10.13;50.04
3294;BME280;1659;51.470;6.770;2023-03-01T09:08:35;102648.97;;;10.24;49.23
3294;BME280;1659;51.470;6.770;2023-03-01T09:11:02;102645.63;;;10.35;49.19
3294;BME280;1659;51.470;6.770;2023-03-01T09:13:29;102641.34;;;10.45;48.71
3294;BME280;1659;51.470;6.770;2023-03-01T09:16:00;102632.66;;;10.58;48.71
3294;BME280;1659;51.470;6.770;2023-03-01T09:18:27;102634.69;;;10.83;48.51
3294;BME280;1659;51.470;6.770;2023-03-01T09:20:53;102629.72;;;11.15;48.44
3294;BME280;1659;51.470;6.770;2023-03-01T09:23:26;102631.69;;;11.42;47.90
3294;BME280;1659;51.470;6.770;2023-03-01T09:25:53;102640.69;;;11.66;47.96
3294;BME280;1659;51.470;6.770;2023-03-01T09:28:19;102627.44;;;11.64;46.42
3294;BME280;1659;51.470;6.770;2023-03-01T09:30:48;102624.78;;;11.63;46.73
3294;BME280;1659;51.470;6.770;2023-03-01T09:33:16;102632.69;;;11.60;46.83
3294;BME280;1659;51.470;6.770;2023-03-01T09:35:42;102614.19;;;11.61;46.72
3294;BME280;1659;51.470;6.770;2023-03-01T09:38:12;102628.44;;;11.80;46.38
3294;BME280;1659;51.470;6.770;2023-03-01T09:40:42;102614.31;;;11.81;46.02
3294;BME280;1659;51.470;6.770;2023-03-01T09:43:18;102618.66;;;11.71;45.66
3294;BME280;1659;51.470;6.770;2023-03-01T09:45:46;102617.78;;;11.74;45.20
3294;BME280;1659;51.470;6.770;2023-03-01T09:48:18;102630.09;;;11.63;45.17
3294;BME280;1659;51.470;6.770;2023-03-01T09:50:47;102618.44;;;11.42;45.22
3294;BME280;1659;51.470;6.770;2023-03-01T09:53:16;102618.63;;;11.62;44.71
3294;BME280;1659;51.470;6.770;2023-03-01T09:55:44;102605.41;;;11.68;44.46
3294;BME280;1659;51.470;6.770;2023-03-01T09:58:31;102601.84;;;11.65;43.79
3294;BME280;1659;51.470;6.770;2023-03-01T10:01:10;102612.38;;;11.56;44.01
3294;BME280;1659;51.470;6.770;2023-03-01T10:03:43;102612.31;;;11.43;43.38
3294;BME280;1659;51.470;6.770;2023-03-01T10:06:14;102606.88;;;11.28;43.10
3294;BME280;1659;51.470;6.770;2023-03-01T10:08:43;102610.34;;;11.21;43.00
3294;BME280;1659;51.470;6.770;2023-03-01T10:11:20;102602.34;;;11.14;42.53
3294;BME280;1659;51.470;6.770;2023-03-01T10:13:50;102607.66;;;11.14;42.28
3294;BME280;1659;51.470;6.770;2023-03-01T10:16:24;102610.22;;;11.05;41.66
3294;BME280;1659;51.470;6.770;2023-03-01T10:18:57;102605.75;;;10.98;41.67
3294;BME280;1659;51.470;6.770;2023-03-01T10:21:26;102590.84;;;11.06;41.88
3294;BME280;1659;51.470;6.770;2023-03-01T10:23:54;102587.44;;;11.23;41.83
3294;BME280;1659;51.470;6.770;2023-03-01T10:26:32;102593.44;;;11.03;40.89
3294;BME280;1659;51.470;6.770;2023-03-01T10:29:03;102584.53;;;10.93;41.08
3294;BME280;1659;51.470;6.770;2023-03-01T10:31:38;102589.03;;;11.04;40.90
3294;BME280;1659;51.470;6.770;2023-03-01T10:34:11;102587.47;;;11.27;40.85
3294;BME280;1659;51.470;6.770;2023-03-01T10:36:39;102578.81;;;11.50;40.58
3294;BME280;1659;51.470;6.770;2023-03-01T10:39:12;102575.31;;;11.54;40.05
3294;BME280;1659;51.470;6.770;2023-03-01T10:41:52;102563.75;;;11.44;40.39
3294;BME280;1659;51.470;6.770;2023-03-01T10:44:36;102556.91;;;11.80;40.23
3294;BME280;1659;51.470;6.770;2023-03-01T10:47:03;102552.63;;;12.01;39.97
3294;BME280;1659;51.470;6.770;2023-03-01T10:49:31;102548.28;;;12.24;39.86
3294;BME280;1659;51.470;6.770;2023-03-01T10:52:15;102541.25;;;12.34;39.63
3294;BME280;1659;51.470;6.770;2023-03-01T10:54:51;102534.19;;;12.52;39.30
3294;BME280;1659;51.470;6.770;2023-03-01T10:57:28;102529.78;;;12.66;38.88
3294;BME280;1659;51.470;6.770;2023-03-01T11:00:13;102530.69;;;12.60;38.59
3294;BME280;1659;51.470;6.770;2023-03-01T11:02:41;102535.97;;;12.51;39.08
3294;BME280;1659;51.470;6.770;2023-03-01T11:05:18;102530.69;;;12.62;38.40
3294;BME280;1659;51.470;6.770;2023-03-01T11:07:49;102524.47;;;12.61;38.17
3294;BME280;1659;51.470;6.770;2023-03-01T11:10:21;102531.53;;;12.52;37.81
3294;BME280;1659;51.470;6.770;2023-03-01T11:12:50;102523.56;;;12.47;37.94
3294;BME280;1659;51.470;6.770;2023-03-01T11:15:25;102520.03;;;12.36;37.55
3294;BME280;1659;51.470;6.770;2023-03-01T11:17:53;102525.31;;;12.33;37.33
3294;BME280;1659;51.470;6.770;2023-03-01T11:20:32;102518.25;;;12.45;37.12
3294;BME280;1659;51.470;6.770;2023-03-01T11:23:03;102520.94;;;12.50;37.11
3294;BME280;1659;51.470;6.770;2023-03-01T11:25:37;102509.44;;;12.46;36.46
3294;BME280;1659;51.470;6.770;2023-03-01T11:28:07;102509.44;;;12.54;36.47
3294;BME280;1659;51.470;6.770;2023-03-01T11:30:41;102519.19;;;12.66;36.34
3294;BME280;1659;51.470;6.770;2023-03-01T11:33:17;102509.47;;;12.62;36.25
3294;BME280;1659;51.470;6.770;2023-03-01T11:35:54;102503.28;;;12.71;35.99
3294;BME280;1659;51.470;6.770;2023-03-01T11:38:23;102501.50;;;12.97;36.19
3294;BME280;1659;51.470;6.770;2023-03-01T11:40:54;102497.88;;;13.26;35.78
3294;BME280;1659;51.470;6.770;2023-03-01T11:43:30;102492.63;;;13.32;35.83
3294;BME280;1659;51.470;6.770;2023-03-01T11:49:02;102492.66;;;12.98;34.91
3294;BME280;1659;51.470;6.770;2023-03-01T11:51:42;102506.81;;;13.00;35.09
3294;BME280;1659;51.470;6.770;2023-03-01T11:54:26;102506.78;;;13.10;34.95
3294;BME280;1659;51.470;6.770;2023-03-01T11:56:58;102501.44;;;13.19;34.87
3294;BME280;1659;51.470;6.770;2023-03-01T12:02:45;102500.47;;;13.66;34.25
3294;BME280;1659;51.470;6.770;2023-03-01T12:05:41;102500.44;;;13.74;34.40
3294;BME280;1659;51.470;6.770;2023-03-01T12:08:17;102490.56;;;14.02;34.49
3294;BME280;1659;51.470;6.770;2023-03-01T12:10:53;102492.94;;;14.47;34.33
3294;BME280;1659;51.470;6.770;2023-03-01T12:13:33;102477.28;;;15.17;34.02
3294;BME280;1659;51.470;6.770;2023-03-01T12:16:18;102479.34;;;15.67;33.79
3294;BME280;1659;51.470;6.770;2023-03-01T12:18:59;102471.09;;;15.89;33.57
3294;BME280;1659;51.470;6.770;2023-03-01T12:21:42;102462.97;;;15.98;33.29
3294;BME280;1659;51.470;6.770;2023-03-01T12:24:28;102461.72;;;16.22;33.03
3294;BME280;1659;51.470;6.770;2023-03-01T12:27:15;102452.50;;;16.42;32.74
3294;BME280;1659;51.470;6.770;2023-03-01T12:29:52;102447.22;;;16.39;32.79
3294;BME280;1659;51.470;6.770;2023-03-01T12:32:28;102447.06;;;16.51;32.79
3294;BME280;1659;51.470;6.770;2023-03-01T12:35:20;102439.56;;;16.72;32.45
3294;BME280;1659;51.470;6.770;2023-03-01T12:37:56;102430.03;;;16.57;32.49
3294;BME280;1659;51.470;6.770;2023-03-01T12:40:43;102437.81;;;16.71;32.10
3294;BME280;1659;51.470;6.770;2023-03-01T12:43:20;102427.72;;;16.90;32.11
3294;BME280;1659;51.470;6.770;2023-03-01T12:46:00;102417.50;;;17.10;31.77
3294;BME280;1659;51.470;6.770;2023-03-01T12:48:40;102418.94;;;17.30;31.70
3294;BME280;1659;51.470;6.770;2023-03-01T12:51:13;102413.00;;;17.56;31.47
3294;BME280;1659;51.470;6.770;2023-03-01T12:53:44;102413.50;;;17.73;31.43
3294;BME280;1659;51.470;6.770;2023-03-01T12:56:16;102419.06;;;18.05;31.09
3294;BME280;1659;51.470;6.770;2023-03-01T12:58:52;102411.25;;;17.96;30.96
3294;BME280;1659;51.470;6.770;2023-03-01T13:01:25;102412.56;;;17.76;31.37
3294;BME280;1659;51.470;6.770;2023-03-01T13:04:10;102398.63;;;17.63;31.07
3294;BME280;1659;51.470;6.770;2023-03-01T13:06:47;102398.22;;;17.80;31.07
3294;BME280;1659;51.470;6.770;2023-03-01T13:09:23;102398.59;;;18.04;30.64
3294;BME280;1659;51.470;6.770;2023-03-01T13:11:54;102400.00;;;17.80;30.62
3294;BME280;1659;51.470;6.770;2023-03-01T13:14:45;102397.03;;;17.53;30.42
3294;BME280;1659;51.470;6.770;2023-03-01T13:17:32;102394.13;;;17.64;30.42
3294;BME280;1659;51.470;6.770;2023-03-01T13:20:00;102391.59;;;17.56;29.96
3294;BME280;1659;51.470;6.770;2023-03-01T13:22:30;102398.13;;;17.44;29.94
3294;BME280;1659;51.470;6.770;2023-03-01T13:25:12;102394.91;;;17.28;29.89
3294;BME280;1659;51.470;6.770;2023-03-01T13:27:41;102386.88;;;17.30;29.63
3294;BME280;1659;51.470;6.770;2023-03-01T13:30:39;102380.25;;;17.46;29.65
3294;BME280;1659;51.470;6.770;2023-03-01T13:33:34;102376.31;;;17.63;29.21